createdAt,value
2023-05-10T00:02:09.700Z,12.20
2023-05-10T00:04:36.682Z,12.20
2023-05-10T00:07:03.574Z,12.10
2023-05-10T00:09:30.812Z,12.10
2023-05-10T00:11:59.483Z,12.20
2023-05-10T00:14:26.516Z,12.20
2023-05-10T00:16:53.579Z,12.20
2023-05-10T00:19:20.790Z,12.20
2023-05-10T00:21:47.748Z,12.20
2023-05-10T00:24:14.673Z,12.20
2023-05-10T00:26:43.359Z,12.20
2023-05-10T00:29:10.413Z,12.20
2023-05-10T00:31:37.442Z,12.20
2023-05-10T00:34:04.552Z,12.20
2023-05-10T00:36:32.440Z,12.20
2023-05-10T00:38:59.859Z,12.20
2023-05-10T00:41:27.022Z,12.20
2023-05-10T00:43:55.023Z,12.20
2023-05-10T00:46:22.579Z,12.20
2023-05-10T00:48:49.667Z,12.20
2023-05-10T00:51:16.649Z,12.20
2023-05-10T00:53:44.995Z,12.30
2023-05-10T00:56:12.059Z,12.30
2023-05-10T00:58:39.452Z,12.40
2023-05-10T01:01:06.973Z,12.40
2023-05-10T01:03:34.051Z,12.40
2023-05-10T01:06:00.959Z,12.40
2023-05-10T01:08:28.213Z,12.40
2023-05-10T01:10:55.556Z,12.30
2023-05-10T01:13:51.386Z,12.30
2023-05-10T01:16:18.411Z,12.30
2023-05-10T01:18:45.496Z,12.30
2023-05-10T01:21:19.599Z,12.30
2023-05-10T01:24:01.945Z,12.30
2023-05-10T01:27:02.053Z,12.40
2023-05-10T01:30:22.078Z,12.40
2023-05-10T01:33:12.694Z,12.30
2023-05-10T01:35:48.515Z,12.40
2023-05-10T01:38:24.064Z,12.40
2023-05-10T01:40:53.839Z,12.40
2023-05-10T01:43:24.377Z,12.40
2023-05-10T01:45:59.956Z,12.40
2023-05-10T01:48:28.180Z,12.40
2023-05-10T01:50:55.165Z,12.40
2023-05-10T01:53:22.182Z,12.40
2023-05-10T01:55:52.088Z,12.40
2023-05-10T01:58:26.496Z,12.40
2023-05-10T02:00:53.664Z,12.40
2023-05-10T02:03:23.382Z,12.50
2023-05-10T02:05:50.480Z,12.40
2023-05-10T02:08:17.474Z,12.40
2023-05-10T02:10:44.500Z,12.40
2023-05-10T02:13:11.619Z,12.30
2023-05-10T02:15:38.659Z,12.40
2023-05-10T02:18:06.707Z,12.40
2023-05-10T02:20:33.830Z,12.30
2023-05-10T02:23:01.021Z,12.30
2023-05-10T02:25:27.981Z,12.30
2023-05-10T02:27:56.123Z,12.30
2023-05-10T02:30:23.703Z,12.20
2023-05-10T02:32:51.919Z,12.20
2023-05-10T02:35:18.952Z,12.10
2023-05-10T02:37:46.586Z,12.20
2023-05-10T02:40:13.828Z,12.20
2023-05-10T02:42:41.612Z,12.20
2023-05-10T02:45:16.727Z,12.20
2023-05-10T02:47:44.795Z,12.20
2023-05-10T02:50:11.992Z,12.20
2023-05-10T02:52:45.079Z,12.20
2023-05-10T02:55:13.822Z,12.20
2023-05-10T02:57:58.224Z,12.20
2023-05-10T03:00:26.216Z,12.20
2023-05-10T03:02:53.741Z,12.20
2023-05-10T03:05:21.277Z,12.20
2023-05-10T03:07:48.734Z,12.10
2023-05-10T03:10:16.069Z,12.20
2023-05-10T03:13:08.916Z,12.10
2023-05-10T03:15:57.463Z,12.10
2023-05-10T03:18:31.536Z,12.10
2023-05-10T03:21:10.029Z,12.10
2023-05-10T03:23:37.524Z,12.10
2023-05-10T03:26:04.505Z,12.10
2023-05-10T03:28:31.463Z,12.10
2023-05-10T03:30:58.927Z,12.10
2023-05-10T03:33:26.207Z,12.10
2023-05-10T03:35:53.872Z,12.10
2023-05-10T03:38:20.900Z,12.20
2023-05-10T03:40:48.068Z,12.20
2023-05-10T03:43:15.259Z,12.20
2023-05-10T03:45:42.734Z,12.10
2023-05-10T03:48:09.769Z,12.10
2023-05-10T03:50:36.695Z,12.10
2023-05-10T03:53:03.901Z,12.10
2023-05-10T03:55:31.129Z,12.10
2023-05-10T03:57:58.082Z,12.10
2023-05-10T04:00:25.399Z,12.10
2023-05-10T04:02:55.061Z,12.10
2023-05-10T04:05:22.263Z,12.00
2023-05-10T04:07:50.869Z,12.00
2023-05-10T04:10:18.092Z,12.00
2023-05-10T04:12:45.225Z,12.00
2023-05-10T04:15:12.262Z,12.00
2023-05-10T04:17:39.371Z,11.90
2023-05-10T04:20:07.176Z,11.90
2023-05-10T04:22:34.197Z,11.90
2023-05-10T04:25:01.084Z,11.90
2023-05-10T04:27:28.230Z,11.90
2023-05-10T04:29:55.253Z,11.90
2023-05-10T04:32:22.237Z,11.80
2023-05-10T04:34:49.196Z,11.80
2023-05-10T04:37:16.150Z,11.80
2023-05-10T04:39:43.162Z,11.80
2023-05-10T04:42:10.264Z,11.80
2023-05-10T04:44:37.450Z,11.70
2023-05-10T04:47:04.591Z,11.70
2023-05-10T04:49:31.514Z,11.70
2023-05-10T04:51:58.469Z,11.60
2023-05-10T04:54:25.518Z,11.50
2023-05-10T04:56:52.653Z,11.50
2023-05-10T04:59:19.764Z,11.50
2023-05-10T05:01:46.782Z,11.50
2023-05-10T05:04:13.713Z,11.50
2023-05-10T05:06:40.609Z,11.50
2023-05-10T05:09:07.706Z,11.50
2023-05-10T05:11:34.756Z,11.50
2023-05-10T05:14:01.831Z,11.50
2023-05-10T05:16:28.887Z,11.50
2023-05-10T05:18:56.921Z,11.50
2023-05-10T05:21:25.011Z,11.50
2023-05-10T05:23:52.051Z,11.60
2023-05-10T05:26:19.307Z,11.60
2023-05-10T05:28:46.513Z,11.70
2023-05-10T05:31:13.664Z,11.60
2023-05-10T05:33:40.653Z,11.60
2023-05-10T05:36:07.814Z,11.60
2023-05-10T05:38:34.722Z,11.60
2023-05-10T05:41:01.786Z,11.60
2023-05-10T05:43:28.851Z,11.70
2023-05-10T05:45:56.205Z,11.60
2023-05-10T05:48:23.331Z,11.70
2023-05-10T05:50:50.395Z,11.60
2023-05-10T05:53:17.716Z,11.80
2023-05-10T05:55:55.388Z,11.80
2023-05-10T05:58:23.543Z,11.80
2023-05-10T06:00:50.904Z,11.70
2023-05-10T06:03:18.059Z,11.70
2023-05-10T06:05:45.288Z,11.70
2023-05-10T06:08:12.312Z,11.70
2023-05-10T06:10:39.363Z,11.70
2023-05-10T06:13:06.484Z,11.70
2023-05-10T06:15:33.790Z,11.70
2023-05-10T06:18:00.860Z,11.80
2023-05-10T06:20:27.976Z,11.80
2023-05-10T06:22:55.069Z,11.80
2023-05-10T06:25:22.352Z,12.00
2023-05-10T06:27:53.373Z,12.10
2023-05-10T06:30:21.389Z,12.30
2023-05-10T06:32:48.464Z,12.50
2023-05-10T06:35:15.665Z,12.50
2023-05-10T06:37:42.735Z,12.60
2023-05-10T06:40:10.438Z,12.70
2023-05-10T06:42:37.439Z,12.60
2023-05-10T06:45:04.836Z,12.50
2023-05-10T06:47:31.765Z,12.60
2023-05-10T06:49:58.820Z,12.80
2023-05-10T06:52:25.786Z,12.90
2023-05-10T06:54:52.694Z,13.20
2023-05-10T06:57:31.341Z,13.40
2023-05-10T07:00:02.588Z,13.90
2023-05-10T07:02:29.853Z,14.00
2023-05-10T07:04:58.895Z,13.90
2023-05-10T07:07:27.237Z,13.70
2023-05-10T07:09:54.194Z,13.80
2023-05-10T07:12:21.291Z,14.10
2023-05-10T07:14:48.336Z,14.70
2023-05-10T07:17:15.533Z,15.10
2023-05-10T07:19:46.374Z,15.40
2023-05-10T07:22:13.998Z,15.70
2023-05-10T07:24:41.580Z,16.30
2023-05-10T07:27:08.550Z,16.40
2023-05-10T07:29:35.758Z,16.40
2023-05-10T07:32:02.816Z,16.70
2023-05-10T07:34:32.003Z,17.30
2023-05-10T07:37:06.630Z,17.60
2023-05-10T07:39:34.024Z,17.30
2023-05-10T07:42:00.983Z,17.00
2023-05-10T07:44:27.950Z,17.10
2023-05-10T07:46:54.956Z,17.40
2023-05-10T07:49:21.895Z,17.70
2023-05-10T07:51:48.926Z,17.70
2023-05-10T07:54:15.922Z,17.90
2023-05-10T07:56:46.709Z,18.00
2023-05-10T07:59:17.217Z,18.30
2023-05-10T08:01:44.478Z,18.70
2023-05-10T08:04:11.645Z,18.70
2023-05-10T08:06:38.665Z,18.70
2023-05-10T08:09:05.909Z,18.90
2023-05-10T08:11:34.855Z,19.10
2023-05-10T08:14:01.987Z,19.50
2023-05-10T08:16:29.981Z,18.90
2023-05-10T08:18:57.189Z,18.70
2023-05-10T08:21:24.164Z,18.90
2023-05-10T08:23:51.288Z,18.90
2023-05-10T08:26:18.212Z,18.80
2023-05-10T08:28:45.159Z,19.00
2023-05-10T08:31:12.178Z,18.80
2023-05-10T08:33:39.159Z,18.60
2023-05-10T08:36:06.278Z,18.70
2023-05-10T08:38:33.366Z,18.70
2023-05-10T08:41:00.689Z,18.80
2023-05-10T08:43:29.256Z,18.90
2023-05-10T08:45:57.553Z,18.90
2023-05-10T08:48:25.595Z,19.20
2023-05-10T08:50:55.780Z,19.40
2023-05-10T08:53:23.567Z,18.80
2023-05-10T08:55:50.587Z,19.10
2023-05-10T08:58:17.554Z,19.20
2023-05-10T09:00:44.542Z,19.00
2023-05-10T09:03:11.619Z,18.90
2023-05-10T09:05:38.575Z,18.80
2023-05-10T09:08:06.436Z,18.80
2023-05-10T09:10:33.494Z,18.90
2023-05-10T09:13:00.432Z,19.30
2023-05-10T09:15:27.627Z,19.40
2023-05-10T09:17:54.617Z,19.50
2023-05-10T09:20:21.668Z,19.40
2023-05-10T09:22:48.759Z,19.20
2023-05-10T09:25:16.692Z,18.50
2023-05-10T09:27:47.626Z,18.70
2023-05-10T09:30:24.796Z,18.90
2023-05-10T09:32:52.130Z,19.10
2023-05-10T09:35:20.322Z,19.30
2023-05-10T09:37:51.136Z,19.30
2023-05-10T09:40:18.814Z,19.30
2023-05-10T09:43:12.377Z,19.30
2023-05-10T09:45:39.421Z,19.10
2023-05-10T09:48:07.120Z,18.70
2023-05-10T09:50:35.248Z,19.10
2023-05-10T09:53:04.268Z,19.30
2023-05-10T09:55:41.227Z,19.20
2023-05-10T09:58:11.463Z,18.90
2023-05-10T10:00:43.284Z,18.80
2023-05-10T10:03:18.055Z,18.60
2023-05-10T10:05:45.688Z,18.70
2023-05-10T10:08:13.233Z,18.40
2023-05-10T10:10:41.495Z,18.50
2023-05-10T10:13:09.094Z,18.40
2023-05-10T10:15:36.181Z,18.70
2023-05-10T10:18:05.200Z,19.00
2023-05-10T10:20:32.419Z,18.70
2023-05-10T10:22:59.376Z,18.50
2023-05-10T10:25:26.547Z,18.80
2023-05-10T10:27:53.601Z,19.00
2023-05-10T10:30:23.299Z,18.50
2023-05-10T10:33:28.812Z,18.30
2023-05-10T10:35:56.159Z,18.30
2023-05-10T10:38:23.913Z,18.60
2023-05-10T10:41:02.581Z,18.70
2023-05-10T10:43:29.861Z,18.40
2023-05-10T10:46:16.464Z,18.40
2023-05-10T10:48:50.216Z,18.40
2023-05-10T10:51:17.606Z,18.10
2023-05-10T10:53:44.562Z,18.00
2023-05-10T10:56:12.933Z,17.90
2023-05-10T10:58:40.206Z,17.90
2023-05-10T11:01:25.574Z,17.70
2023-05-10T11:04:01.741Z,17.80
2023-05-10T11:06:35.726Z,18.00
2023-05-10T11:09:09.843Z,18.30
2023-05-10T11:11:37.370Z,18.50
2023-05-10T11:14:06.333Z,18.70
2023-05-10T11:16:44.069Z,18.70
2023-05-10T11:19:18.206Z,18.50
2023-05-10T11:22:11.405Z,18.30
2023-05-10T11:24:38.366Z,18.50
2023-05-10T11:27:05.404Z,18.70
2023-05-10T11:29:32.603Z,18.60
2023-05-10T11:32:00.141Z,18.70
2023-05-10T11:34:31.569Z,18.70
2023-05-10T11:36:58.803Z,18.70
2023-05-10T11:39:32.719Z,18.70
2023-05-10T11:41:59.726Z,18.90
2023-05-10T11:44:35.844Z,18.90
2023-05-10T11:47:02.908Z,19.10
2023-05-10T11:49:29.828Z,19.20
2023-05-10T11:52:07.662Z,19.50
2023-05-10T11:54:36.124Z,19.60
2023-05-10T11:57:03.181Z,19.80
2023-05-10T11:59:30.359Z,19.80
2023-05-10T12:01:57.279Z,19.50
2023-05-10T12:04:24.378Z,19.60
2023-05-10T12:06:51.562Z,19.50
2023-05-10T12:09:22.982Z,19.40
2023-05-10T12:11:58.858Z,19.40
2023-05-10T12:14:25.883Z,19.20
2023-05-10T12:16:53.612Z,19.10
2023-05-10T12:19:23.748Z,19.00
2023-05-10T12:21:50.806Z,18.90
2023-05-10T12:24:19.029Z,18.90
2023-05-10T12:27:07.827Z,18.90
2023-05-10T12:29:34.759Z,18.90
2023-05-10T12:32:01.970Z,18.80
2023-05-10T12:34:32.620Z,18.70
2023-05-10T12:36:59.811Z,18.70
2023-05-10T12:39:26.690Z,18.70
2023-05-10T12:41:53.811Z,18.70
2023-05-10T12:44:20.790Z,18.60
2023-05-10T12:46:47.951Z,18.40
2023-05-10T12:49:14.874Z,18.30
2023-05-10T12:51:41.793Z,18.30
2023-05-10T12:54:08.682Z,18.50
2023-05-10T12:56:35.575Z,18.50
2023-05-10T12:59:02.483Z,18.50
2023-05-10T13:01:29.688Z,18.60
2023-05-10T13:03:56.765Z,18.60
2023-05-10T13:06:23.713Z,18.70
2023-05-10T13:08:50.613Z,18.90
2023-05-10T13:11:18.077Z,19.10
2023-05-10T13:13:45.672Z,19.00
2023-05-10T13:16:12.615Z,19.10
2023-05-10T13:18:39.514Z,19.10
2023-05-10T13:21:06.780Z,19.10
2023-05-10T13:23:33.733Z,19.00
2023-05-10T13:26:00.751Z,19.00
2023-05-10T13:28:27.737Z,18.90
2023-05-10T13:30:54.682Z,18.80
2023-05-10T13:33:21.578Z,18.90
2023-05-10T13:35:48.552Z,19.20
2023-05-10T13:38:15.560Z,19.10
2023-05-10T13:40:42.495Z,19.00
2023-05-10T13:43:09.467Z,19.10
2023-05-10T13:45:36.748Z,18.90
2023-05-10T13:48:03.780Z,18.50
2023-05-10T13:50:31.148Z,17.90
2023-05-10T13:52:58.071Z,17.40
2023-05-10T13:55:25.041Z,16.90
2023-05-10T13:57:51.956Z,16.80
2023-05-10T14:00:19.234Z,16.50
2023-05-10T14:02:46.218Z,16.40
2023-05-10T14:05:13.992Z,16.20
2023-05-10T14:07:41.027Z,16.20
2023-05-10T14:10:08.278Z,16.30
2023-05-10T14:12:35.148Z,16.40
2023-05-10T14:15:02.270Z,16.50
2023-05-10T14:17:29.563Z,16.40
2023-05-10T14:19:56.487Z,16.40
2023-05-10T14:22:23.674Z,16.50
2023-05-10T14:24:51.202Z,16.60
2023-05-10T14:27:18.161Z,16.80
2023-05-10T14:29:45.125Z,17.10
2023-05-10T14:32:12.248Z,17.60
2023-05-10T14:34:39.165Z,18.10
2023-05-10T14:37:06.150Z,18.40
2023-05-10T14:39:34.163Z,18.50
2023-05-10T14:42:01.386Z,18.40
2023-05-10T14:44:28.736Z,18.30
2023-05-10T14:46:56.740Z,18.50
2023-05-10T14:49:25.719Z,18.30
2023-05-10T14:51:52.737Z,18.50
2023-05-10T14:54:20.518Z,18.50
2023-05-10T14:56:47.728Z,18.50
2023-05-10T14:59:14.631Z,18.40
2023-05-10T15:01:43.280Z,18.50
2023-05-10T15:04:10.863Z,18.50
2023-05-10T15:06:38.319Z,18.30
2023-05-10T15:09:05.285Z,18.10
2023-05-10T15:11:32.269Z,17.90
2023-05-10T15:13:59.495Z,17.60
2023-05-10T15:16:26.554Z,17.50
2023-05-10T15:18:53.642Z,17.30
2023-05-10T15:21:20.570Z,17.10
2023-05-10T15:23:47.459Z,17.00
2023-05-10T15:26:14.620Z,17.10
2023-05-10T15:28:41.897Z,17.20
2023-05-10T15:31:08.898Z,17.50
2023-05-10T15:33:37.054Z,17.70
2023-05-10T15:36:04.957Z,17.80
2023-05-10T15:38:32.890Z,18.20
2023-05-10T15:40:59.804Z,18.20
2023-05-10T15:43:26.828Z,18.10
2023-05-10T15:45:53.841Z,17.90
2023-05-10T15:48:21.068Z,17.90
2023-05-10T15:50:48.131Z,17.80
2023-05-10T15:53:15.173Z,17.70
2023-05-10T15:55:42.098Z,17.70
2023-05-10T15:58:09.075Z,17.50
2023-05-10T16:00:36.286Z,17.40
2023-05-10T16:03:03.459Z,17.30
2023-05-10T16:05:33.567Z,17.20
2023-05-10T16:08:01.809Z,17.10
2023-05-10T16:10:28.903Z,17.00
2023-05-10T16:12:56.248Z,16.90
2023-05-10T16:15:23.251Z,16.80
2023-05-10T16:17:50.448Z,16.80
2023-05-10T16:20:17.577Z,16.60
2023-05-10T16:22:44.553Z,16.60
2023-05-10T16:25:13.496Z,16.40
2023-05-10T16:27:41.059Z,16.40
2023-05-10T16:30:08.937Z,16.20
2023-05-10T16:32:35.945Z,16.10
2023-05-10T16:35:02.909Z,16.00
2023-05-10T16:37:29.930Z,15.90
2023-05-10T16:39:57.096Z,15.80
2023-05-10T16:42:25.253Z,15.70
2023-05-10T16:44:52.582Z,15.80
2023-05-10T16:47:19.618Z,15.70
2023-05-10T16:49:46.743Z,15.60
2023-05-10T16:52:14.319Z,15.50
2023-05-10T16:54:41.261Z,15.50
2023-05-10T16:57:08.693Z,15.50
2023-05-10T16:59:35.697Z,15.50
2023-05-10T17:02:02.740Z,15.50
2023-05-10T17:04:29.754Z,15.50
2023-05-10T17:06:57.052Z,15.40
2023-05-10T17:09:23.959Z,15.30
2023-05-10T17:11:51.114Z,15.30
2023-05-10T17:14:18.209Z,15.20
2023-05-10T17:16:45.268Z,15.10
2023-05-10T17:19:12.285Z,15.00
2023-05-10T17:21:39.237Z,15.00
2023-05-10T17:24:06.336Z,14.90
2023-05-10T17:26:34.601Z,14.90
2023-05-10T17:29:01.563Z,14.80
2023-05-10T17:31:29.952Z,14.70
2023-05-10T17:33:57.003Z,14.70
2023-05-10T17:36:24.380Z,14.70
2023-05-10T17:38:52.579Z,14.70
2023-05-10T17:41:20.457Z,14.80
2023-05-10T17:43:48.346Z,14.80
2023-05-10T17:46:16.217Z,14.80
2023-05-10T17:48:43.746Z,14.90
2023-05-10T17:51:13.968Z,14.90
2023-05-10T17:53:41.950Z,15.00
2023-05-10T17:56:09.797Z,15.10
2023-05-10T17:58:40.445Z,15.10
2023-05-10T18:01:07.878Z,15.00
2023-05-10T18:03:36.101Z,15.00
2023-05-10T18:06:04.650Z,15.00
2023-05-10T18:08:35.334Z,15.10
2023-05-10T18:11:02.919Z,15.20
2023-05-10T18:13:30.197Z,15.30
2023-05-10T18:15:58.144Z,15.40
2023-05-10T18:18:25.919Z,15.40
2023-05-10T18:21:00.547Z,15.30
2023-05-10T18:23:28.001Z,15.30
2023-05-10T18:25:55.256Z,15.40
2023-05-10T18:28:22.707Z,15.50
2023-05-10T18:30:51.456Z,15.60
2023-05-10T18:33:18.751Z,15.80
2023-05-10T18:35:45.826Z,15.90
2023-05-10T18:38:13.611Z,15.80
2023-05-10T18:40:42.248Z,15.80
2023-05-10T18:43:09.355Z,15.70
2023-05-10T18:45:36.551Z,15.60
2023-05-10T18:48:03.532Z,15.60
2023-05-10T18:50:30.587Z,15.60
2023-05-10T18:52:57.481Z,15.60
2023-05-10T18:55:25.874Z,15.60
2023-05-10T18:57:53.033Z,15.70
2023-05-10T19:00:20.574Z,15.80
2023-05-10T19:02:48.121Z,15.70
2023-05-10T19:05:15.998Z,15.70
2023-05-10T19:07:44.053Z,15.60
2023-05-10T19:10:13.050Z,15.50
2023-05-10T19:12:41.815Z,15.50
2023-05-10T19:15:09.486Z,15.30
2023-05-10T19:17:39.324Z,15.20
2023-05-10T19:20:08.070Z,15.10
2023-05-10T19:22:47.283Z,15.00
2023-05-10T19:25:22.785Z,15.00
2023-05-10T19:27:51.486Z,14.90
2023-05-10T19:30:18.666Z,14.90
2023-05-10T19:32:45.660Z,14.80
2023-05-10T19:35:13.217Z,14.90
2023-05-10T19:37:40.710Z,15.00
2023-05-10T19:40:08.616Z,15.00
2023-05-10T19:42:36.094Z,15.00
2023-05-10T19:45:03.395Z,14.80
2023-05-10T19:47:30.687Z,14.70
2023-05-10T19:49:58.834Z,14.60
2023-05-10T19:52:28.713Z,14.60
2023-05-10T19:54:55.872Z,14.70
2023-05-10T19:57:25.067Z,14.70
2023-05-10T19:59:52.212Z,14.70
2023-05-10T20:02:19.863Z,14.80
2023-05-10T20:04:47.054Z,14.80
2023-05-10T20:07:13.996Z,14.70
2023-05-10T20:09:42.871Z,14.60
2023-05-10T20:12:10.647Z,14.50
2023-05-10T20:14:37.739Z,14.40
2023-05-10T20:17:05.032Z,14.30
2023-05-10T20:19:32.305Z,14.30
2023-05-10T20:21:59.441Z,14.30
2023-05-10T20:24:26.718Z,14.20
2023-05-10T20:26:53.796Z,14.10
2023-05-10T20:29:20.879Z,14.00
2023-05-10T20:31:48.049Z,13.90
2023-05-10T20:34:15.076Z,13.90
2023-05-10T20:36:42.227Z,14.00
2023-05-10T20:39:09.770Z,14.10
2023-05-10T20:41:36.793Z,14.20
2023-05-10T20:44:05.578Z,14.10
2023-05-10T20:46:33.108Z,14.00
2023-05-10T20:49:00.434Z,13.90
2023-05-10T20:51:28.989Z,14.00
2023-05-10T20:53:57.216Z,14.10
2023-05-10T20:56:24.203Z,14.10
2023-05-10T20:58:51.224Z,14.10
2023-05-10T21:01:18.209Z,14.10
2023-05-10T21:03:45.355Z,14.00
2023-05-10T21:06:12.323Z,14.00
2023-05-10T21:08:39.245Z,14.00
2023-05-10T21:11:06.288Z,14.00
2023-05-10T21:13:33.376Z,14.00
2023-05-10T21:16:00.504Z,14.10
2023-05-10T21:18:27.582Z,14.10
2023-05-10T21:20:54.674Z,14.10
2023-05-10T21:23:21.802Z,14.10
2023-05-10T21:25:48.816Z,14.10
2023-05-10T21:28:15.957Z,14.10
2023-05-10T21:30:42.945Z,14.00
2023-05-10T21:33:09.889Z,13.90
2023-05-10T21:35:39.464Z,13.90
2023-05-10T21:38:06.620Z,13.80
2023-05-10T21:40:33.540Z,13.80
2023-05-10T21:43:00.674Z,13.80
2023-05-10T21:45:31.728Z,13.70
2023-05-10T21:48:01.982Z,13.70
2023-05-10T21:50:28.983Z,13.60
2023-05-10T21:52:56.676Z,13.50
2023-05-10T21:55:23.658Z,13.50
2023-05-10T21:57:50.968Z,13.40
2023-05-10T22:00:19.337Z,13.40
2023-05-10T22:02:47.050Z,13.40
2023-05-10T22:05:14.078Z,13.40
2023-05-10T22:07:41.062Z,13.40
2023-05-10T22:10:09.163Z,13.20
2023-05-10T22:12:36.699Z,13.20
2023-05-10T22:15:09.808Z,13.10
2023-05-10T22:17:39.616Z,13.10
2023-05-10T22:20:08.453Z,13.00
2023-05-10T22:22:36.649Z,12.90
2023-05-10T22:25:05.128Z,12.90
2023-05-10T22:27:32.308Z,12.80
2023-05-10T22:29:59.254Z,12.80
2023-05-10T22:32:26.177Z,12.80
2023-05-10T22:34:53.129Z,12.70
2023-05-10T22:37:20.137Z,12.60
2023-05-10T22:39:50.055Z,12.50
2023-05-10T22:42:17.256Z,12.50
2023-05-10T22:44:44.460Z,12.40
2023-05-10T22:47:11.617Z,12.40
2023-05-10T22:49:38.716Z,12.30
2023-05-10T22:52:05.622Z,12.30
2023-05-10T22:54:33.791Z,12.30
2023-05-10T22:57:02.597Z,12.20
2023-05-10T22:59:29.525Z,12.20
2023-05-10T23:01:56.509Z,12.20
2023-05-10T23:04:23.481Z,12.20
2023-05-10T23:06:50.473Z,12.10
2023-05-10T23:09:17.410Z,12.20
2023-05-10T23:11:44.337Z,12.20
2023-05-10T23:14:11.302Z,12.20
2023-05-10T23:16:38.308Z,12.20
2023-05-10T23:19:05.370Z,12.20
2023-05-10T23:21:32.738Z,12.20
2023-05-10T23:23:59.735Z,12.20
2023-05-10T23:26:26.945Z,12.20
2023-05-10T23:28:53.957Z,12.10
2023-05-10T23:31:21.607Z,12.00
2023-05-10T23:33:48.553Z,12.00
2023-05-10T23:36:15.535Z,11.90
2023-05-10T23:38:42.502Z,11.80
2023-05-10T23:41:09.483Z,11.80
2023-05-10T23:43:36.692Z,11.90
2023-05-10T23:46:05.371Z,11.90
2023-05-10T23:48:32.451Z,11.90
2023-05-10T23:50:59.440Z,11.90
2023-05-10T23:53:26.530Z,11.90
2023-05-10T23:55:53.689Z,11.80
2023-05-10T23:58:21.285Z,11.90
